sensor_id;sensor_type;location;lat;lon;timestamp;P1;durP1;ratioP1;P2;durP2;ratioP2
4529;SDS011;2277;51.626;7.516;2023-08-12T00:01:03;8.20;;;6.77;;
4529;SDS011;2277;51.626;7.516;2023-08-12T00:03:28;6.77;;;5.50;;
4529;SDS011;2277;51.626;7.516;2023-08-12T00:05:54;7.80;;;5.83;;
4529;SDS011;2277;51.626;7.516;2023-08-12T00:08:21;6.37;;;5.60;;
4529;SDS011;2277;51.626;7.516;2023-08-12T00:10:47;7.13;;;6.20;;
4529;SDS011;2277;51.626;7.516;2023-08-12T00:13:12;14.17;;;5.90;;
4529;SDS011;2277;51.626;7.516;2023-08-12T00:15:42;9.10;;;6.03;;
4529;SDS011;2277;51.626;7.516;2023-08-12T00:18:08;7.37;;;6.60;;
4529;SDS011;2277;51.626;7.516;2023-08-12T00:20:34;9.70;;;6.63;;
4529;SDS011;2277;51.626;7.516;2023-08-12T00:23:00;10.33;;;7.10;;
4529;SDS011;2277;51.626;7.516;2023-08-12T00:25:25;7.77;;;6.70;;
4529;SDS011;2277;51.626;7.516;2023-08-12T00:27:51;8.37;;;7.20;;
4529;SDS011;2277;51.626;7.516;2023-08-12T00:30:17;7.63;;;6.20;;
4529;SDS011;2277;51.626;7.516;2023-08-12T00:32:43;11.40;;;6.10;;
4529;SDS011;2277;51.626;7.516;2023-08-12T00:35:09;12.30;;;7.20;;
4529;SDS011;2277;51.626;7.516;2023-08-12T00:37:34;8.57;;;5.70;;
4529;SDS011;2277;51.626;7.516;2023-08-12T00:40:00;12.57;;;7.23;;
4529;SDS011;2277;51.626;7.516;2023-08-12T00:42:26;6.77;;;5.00;;
4529;SDS011;2277;51.626;7.516;2023-08-12T00:44:51;8.20;;;6.10;;
4529;SDS011;2277;51.626;7.516;2023-08-12T00:47:17;7.57;;;6.43;;
4529;SDS011;2277;51.626;7.516;2023-08-12T00:49:43;11.30;;;8.37;;
4529;SDS011;2277;51.626;7.516;2023-08-12T00:52:11;9.20;;;6.60;;
4529;SDS011;2277;51.626;7.516;2023-08-12T00:54:37;8.13;;;6.03;;
4529;SDS011;2277;51.626;7.516;2023-08-12T00:57:03;7.63;;;6.53;;
4529;SDS011;2277;51.626;7.516;2023-08-12T00:59:30;6.63;;;5.40;;
4529;SDS011;2277;51.626;7.516;2023-08-12T01:01:57;6.40;;;5.30;;
4529;SDS011;2277;51.626;7.516;2023-08-12T01:04:23;7.10;;;6.50;;
4529;SDS011;2277;51.626;7.516;2023-08-12T01:06:48;7.57;;;5.93;;
4529;SDS011;2277;51.626;7.516;2023-08-12T01:09:14;7.60;;;6.80;;
4529;SDS011;2277;51.626;7.516;2023-08-12T01:17:18;11.40;;;7.53;;
4529;SDS011;2277;51.626;7.516;2023-08-12T01:19:44;7.10;;;6.00;;
4529;SDS011;2277;51.626;7.516;2023-08-12T01:22:12;6.40;;;5.37;;
4529;SDS011;2277;51.626;7.516;2023-08-12T01:24:39;9.97;;;6.87;;
4529;SDS011;2277;51.626;7.516;2023-08-12T01:27:07;7.17;;;5.60;;
4529;SDS011;2277;51.626;7.516;2023-08-12T01:29:34;8.47;;;6.60;;
4529;SDS011;2277;51.626;7.516;2023-08-12T01:32:19;8.30;;;6.80;;
4529;SDS011;2277;51.626;7.516;2023-08-12T01:37:35;10.27;;;7.60;;
4529;SDS011;2277;51.626;7.516;2023-08-12T01:40:03;9.30;;;8.30;;
4529;SDS011;2277;51.626;7.516;2023-08-12T01:42:30;13.13;;;7.97;;
4529;SDS011;2277;51.626;7.516;2023-08-12T01:44:57;8.10;;;6.80;;
4529;SDS011;2277;51.626;7.516;2023-08-12T01:47:24;10.80;;;7.30;;
4529;SDS011;2277;51.626;7.516;2023-08-12T01:49:50;7.43;;;6.60;;
4529;SDS011;2277;51.626;7.516;2023-08-12T01:52:15;8.77;;;7.13;;
4529;SDS011;2277;51.626;7.516;2023-08-12T01:54:41;7.90;;;7.00;;
4529;SDS011;2277;51.626;7.516;2023-08-12T01:57:06;10.10;;;7.87;;
4529;SDS011;2277;51.626;7.516;2023-08-12T01:59:34;8.60;;;7.70;;
4529;SDS011;2277;51.626;7.516;2023-08-12T02:02:00;7.43;;;6.73;;
4529;SDS011;2277;51.626;7.516;2023-08-12T02:04:26;7.47;;;6.53;;
4529;SDS011;2277;51.626;7.516;2023-08-12T02:06:52;23.47;;;8.60;;
4529;SDS011;2277;51.626;7.516;2023-08-12T02:09:18;10.73;;;7.97;;
4529;SDS011;2277;51.626;7.516;2023-08-12T02:11:44;10.50;;;7.53;;
4529;SDS011;2277;51.626;7.516;2023-08-12T02:14:10;10.10;;;7.80;;
4529;SDS011;2277;51.626;7.516;2023-08-12T02:16:35;10.73;;;8.60;;
4529;SDS011;2277;51.626;7.516;2023-08-12T02:19:01;10.63;;;8.33;;
4529;SDS011;2277;51.626;7.516;2023-08-12T02:21:27;8.83;;;7.63;;
4529;SDS011;2277;51.626;7.516;2023-08-12T02:23:52;10.20;;;8.90;;
4529;SDS011;2277;51.626;7.516;2023-08-12T02:26:18;10.20;;;8.50;;
4529;SDS011;2277;51.626;7.516;2023-08-12T02:28:43;10.77;;;8.47;;
4529;SDS011;2277;51.626;7.516;2023-08-12T02:31:09;10.23;;;8.00;;
4529;SDS011;2277;51.626;7.516;2023-08-12T02:33:35;12.87;;;9.23;;
4529;SDS011;2277;51.626;7.516;2023-08-12T02:36:00;14.90;;;10.47;;
4529;SDS011;2277;51.626;7.516;2023-08-12T02:38:26;11.57;;;7.70;;
4529;SDS011;2277;51.626;7.516;2023-08-12T02:40:51;15.67;;;10.43;;
4529;SDS011;2277;51.626;7.516;2023-08-12T02:43:17;11.80;;;9.50;;
4529;SDS011;2277;51.626;7.516;2023-08-12T02:45:43;14.37;;;11.10;;
4529;SDS011;2277;51.626;7.516;2023-08-12T02:48:12;15.93;;;11.20;;
4529;SDS011;2277;51.626;7.516;2023-08-12T02:50:38;15.00;;;11.17;;
4529;SDS011;2277;51.626;7.516;2023-08-12T02:53:04;16.67;;;11.53;;
4529;SDS011;2277;51.626;7.516;2023-08-12T02:55:30;14.17;;;10.73;;
4529;SDS011;2277;51.626;7.516;2023-08-12T02:57:59;13.70;;;11.83;;
4529;SDS011;2277;51.626;7.516;2023-08-12T03:00:25;13.77;;;9.70;;
4529;SDS011;2277;51.626;7.516;2023-08-12T03:02:52;17.80;;;11.13;;
4529;SDS011;2277;51.626;7.516;2023-08-12T03:05:18;19.30;;;11.10;;
4529;SDS011;2277;51.626;7.516;2023-08-12T03:07:44;12.57;;;10.17;;
4529;SDS011;2277;51.626;7.516;2023-08-12T03:10:09;17.10;;;10.70;;
4529;SDS011;2277;51.626;7.516;2023-08-12T03:12:35;14.77;;;10.90;;
4529;SDS011;2277;51.626;7.516;2023-08-12T03:15:01;14.10;;;11.07;;
4529;SDS011;2277;51.626;7.516;2023-08-12T03:17:28;14.10;;;10.53;;
4529;SDS011;2277;51.626;7.516;2023-08-12T03:19:53;15.50;;;10.90;;
4529;SDS011;2277;51.626;7.516;2023-08-12T03:22:19;17.63;;;11.60;;
4529;SDS011;2277;51.626;7.516;2023-08-12T03:24:45;14.80;;;10.13;;
4529;SDS011;2277;51.626;7.516;2023-08-12T03:27:11;11.73;;;9.30;;
4529;SDS011;2277;51.626;7.516;2023-08-12T03:29:37;12.83;;;9.77;;
4529;SDS011;2277;51.626;7.516;2023-08-12T03:32:02;14.43;;;9.70;;
4529;SDS011;2277;51.626;7.516;2023-08-12T03:34:28;13.30;;;10.10;;
4529;SDS011;2277;51.626;7.516;2023-08-12T03:36:57;13.70;;;11.03;;
4529;SDS011;2277;51.626;7.516;2023-08-12T03:39:23;16.50;;;11.47;;
4529;SDS011;2277;51.626;7.516;2023-08-12T03:41:48;13.77;;;11.27;;
4529;SDS011;2277;51.626;7.516;2023-08-12T03:44:15;15.30;;;10.80;;
4529;SDS011;2277;51.626;7.516;2023-08-12T03:46:41;13.40;;;10.70;;
4529;SDS011;2277;51.626;7.516;2023-08-12T03:49:07;11.97;;;9.60;;
4529;SDS011;2277;51.626;7.516;2023-08-12T03:51:32;14.73;;;12.67;;
4529;SDS011;2277;51.626;7.516;2023-08-12T03:53:58;16.80;;;10.53;;
4529;SDS011;2277;51.626;7.516;2023-08-12T03:56:24;15.87;;;11.47;;
4529;SDS011;2277;51.626;7.516;2023-08-12T03:58:49;12.30;;;10.10;;
4529;SDS011;2277;51.626;7.516;2023-08-12T04:01:16;14.33;;;10.27;;
4529;SDS011;2277;51.626;7.516;2023-08-12T04:03:41;17.80;;;11.97;;
4529;SDS011;2277;51.626;7.516;2023-08-12T04:06:07;13.17;;;9.40;;
4529;SDS011;2277;51.626;7.516;2023-08-12T04:08:32;17.63;;;10.33;;
4529;SDS011;2277;51.626;7.516;2023-08-12T04:10:59;17.33;;;12.17;;
4529;SDS011;2277;51.626;7.516;2023-08-12T04:13:25;14.73;;;10.53;;
4529;SDS011;2277;51.626;7.516;2023-08-12T04:15:50;14.60;;;10.80;;
4529;SDS011;2277;51.626;7.516;2023-08-12T04:18:18;19.37;;;12.47;;
4529;SDS011;2277;51.626;7.516;2023-08-12T04:20:44;13.57;;;10.60;;
4529;SDS011;2277;51.626;7.516;2023-08-12T04:23:12;13.57;;;9.57;;
4529;SDS011;2277;51.626;7.516;2023-08-12T04:25:38;12.87;;;10.83;;
4529;SDS011;2277;51.626;7.516;2023-08-12T04:28:03;13.60;;;9.13;;
4529;SDS011;2277;51.626;7.516;2023-08-12T04:30:29;12.10;;;10.67;;
4529;SDS011;2277;51.626;7.516;2023-08-12T04:32:54;12.03;;;9.73;;
4529;SDS011;2277;51.626;7.516;2023-08-12T04:35:20;12.93;;;9.30;;
4529;SDS011;2277;51.626;7.516;2023-08-12T04:37:46;9.10;;;8.17;;
4529;SDS011;2277;51.626;7.516;2023-08-12T04:40:11;13.50;;;9.80;;
4529;SDS011;2277;51.626;7.516;2023-08-12T04:42:37;14.57;;;9.70;;
4529;SDS011;2277;51.626;7.516;2023-08-12T04:45:03;12.87;;;10.30;;
4529;SDS011;2277;51.626;7.516;2023-08-12T04:47:29;11.67;;;9.27;;
4529;SDS011;2277;51.626;7.516;2023-08-12T04:49:54;13.67;;;9.63;;
4529;SDS011;2277;51.626;7.516;2023-08-12T04:52:20;16.33;;;9.40;;
4529;SDS011;2277;51.626;7.516;2023-08-12T04:54:46;12.47;;;9.63;;
4529;SDS011;2277;51.626;7.516;2023-08-12T04:57:11;13.30;;;10.70;;
4529;SDS011;2277;51.626;7.516;2023-08-12T04:59:37;11.47;;;8.80;;
4529;SDS011;2277;51.626;7.516;2023-08-12T05:02:03;12.23;;;9.40;;
4529;SDS011;2277;51.626;7.516;2023-08-12T05:04:28;10.23;;;8.60;;
4529;SDS011;2277;51.626;7.516;2023-08-12T05:06:54;10.53;;;9.53;;
4529;SDS011;2277;51.626;7.516;2023-08-12T05:09:19;8.77;;;7.87;;
4529;SDS011;2277;51.626;7.516;2023-08-12T05:11:45;11.97;;;9.00;;
4529;SDS011;2277;51.626;7.516;2023-08-12T05:14:11;13.57;;;9.33;;
4529;SDS011;2277;51.626;7.516;2023-08-12T05:16:36;10.33;;;7.90;;
4529;SDS011;2277;51.626;7.516;2023-08-12T05:19:02;14.40;;;8.97;;
4529;SDS011;2277;51.626;7.516;2023-08-12T05:21:27;12.20;;;10.87;;
4529;SDS011;2277;51.626;7.516;2023-08-12T05:23:53;9.53;;;8.30;;
4529;SDS011;2277;51.626;7.516;2023-08-12T05:26:18;10.93;;;8.80;;
4529;SDS011;2277;51.626;7.516;2023-08-12T05:28:45;12.50;;;9.90;;
4529;SDS011;2277;51.626;7.516;2023-08-12T05:31:11;11.53;;;10.13;;
4529;SDS011;2277;51.626;7.516;2023-08-12T05:33:37;13.07;;;10.60;;
4529;SDS011;2277;51.626;7.516;2023-08-12T05:36:03;11.87;;;9.30;;
4529;SDS011;2277;51.626;7.516;2023-08-12T05:38:28;11.40;;;8.23;;
4529;SDS011;2277;51.626;7.516;2023-08-12T05:40:54;13.40;;;10.37;;
4529;SDS011;2277;51.626;7.516;2023-08-12T05:43:20;13.10;;;9.20;;
4529;SDS011;2277;51.626;7.516;2023-08-12T05:45:45;17.63;;;12.67;;
4529;SDS011;2277;51.626;7.516;2023-08-12T05:48:11;12.10;;;9.07;;
4529;SDS011;2277;51.626;7.516;2023-08-12T05:50:36;10.77;;;9.50;;
4529;SDS011;2277;51.626;7.516;2023-08-12T05:53:02;12.83;;;9.10;;
4529;SDS011;2277;51.626;7.516;2023-08-12T05:55:28;12.30;;;10.63;;
4529;SDS011;2277;51.626;7.516;2023-08-12T05:57:53;15.80;;;11.03;;
4529;SDS011;2277;51.626;7.516;2023-08-12T06:00:19;14.10;;;10.23;;
4529;SDS011;2277;51.626;7.516;2023-08-12T06:02:45;15.77;;;9.70;;
4529;SDS011;2277;51.626;7.516;2023-08-12T06:05:10;15.53;;;12.03;;
4529;SDS011;2277;51.626;7.516;2023-08-12T06:07:36;13.80;;;10.50;;
4529;SDS011;2277;51.626;7.516;2023-08-12T06:10:02;12.23;;;10.90;;
4529;SDS011;2277;51.626;7.516;2023-08-12T06:12:29;13.87;;;10.37;;
4529;SDS011;2277;51.626;7.516;2023-08-12T06:14:54;19.73;;;10.47;;
4529;SDS011;2277;51.626;7.516;2023-08-12T06:17:20;21.60;;;12.70;;
4529;SDS011;2277;51.626;7.516;2023-08-12T06:19:45;13.77;;;10.60;;
4529;SDS011;2277;51.626;7.516;2023-08-12T06:22:11;10.03;;;8.87;;
4529;SDS011;2277;51.626;7.516;2023-08-12T06:24:37;11.73;;;9.20;;
4529;SDS011;2277;51.626;7.516;2023-08-12T06:27:02;12.87;;;9.93;;
4529;SDS011;2277;51.626;7.516;2023-08-12T06:29:28;10.80;;;9.50;;
4529;SDS011;2277;51.626;7.516;2023-08-12T06:31:53;11.83;;;8.50;;
4529;SDS011;2277;51.626;7.516;2023-08-12T06:34:19;10.57;;;8.77;;
4529;SDS011;2277;51.626;7.516;2023-08-12T06:36:45;12.93;;;8.13;;
4529;SDS011;2277;51.626;7.516;2023-08-12T06:39:10;10.83;;;8.80;;
4529;SDS011;2277;51.626;7.516;2023-08-12T06:41:36;13.90;;;10.80;;
4529;SDS011;2277;51.626;7.516;2023-08-12T06:44:01;8.87;;;7.97;;
4529;SDS011;2277;51.626;7.516;2023-08-12T06:46:29;14.50;;;8.57;;
4529;SDS011;2277;51.626;7.516;2023-08-12T06:48:55;12.80;;;8.63;;
4529;SDS011;2277;51.626;7.516;2023-08-12T06:51:21;12.43;;;8.10;;
4529;SDS011;2277;51.626;7.516;2023-08-12T06:53:47;10.60;;;8.43;;
4529;SDS011;2277;51.626;7.516;2023-08-12T06:56:12;10.70;;;7.80;;
4529;SDS011;2277;51.626;7.516;2023-08-12T06:58:38;11.50;;;7.90;;
4529;SDS011;2277;51.626;7.516;2023-08-12T07:01:03;8.23;;;6.10;;
4529;SDS011;2277;51.626;7.516;2023-08-12T07:03:29;7.50;;;6.23;;
4529;SDS011;2277;51.626;7.516;2023-08-12T07:05:55;10.80;;;6.80;;
4529;SDS011;2277;51.626;7.516;2023-08-12T07:08:21;7.17;;;6.40;;
4529;SDS011;2277;51.626;7.516;2023-08-12T07:10:46;9.30;;;6.33;;
4529;SDS011;2277;51.626;7.516;2023-08-12T07:13:12;7.77;;;6.40;;
4529;SDS011;2277;51.626;7.516;2023-08-12T07:15:37;6.83;;;6.07;;
4529;SDS011;2277;51.626;7.516;2023-08-12T07:18:03;10.00;;;5.47;;
4529;SDS011;2277;51.626;7.516;2023-08-12T07:20:29;11.53;;;5.67;;
4529;SDS011;2277;51.626;7.516;2023-08-12T07:22:54;5.10;;;4.60;;
4529;SDS011;2277;51.626;7.516;2023-08-12T07:25:21;4.47;;;4.07;;
4529;SDS011;2277;51.626;7.516;2023-08-12T07:27:46;5.17;;;4.20;;
4529;SDS011;2277;51.626;7.516;2023-08-12T07:30:12;5.40;;;4.47;;
4529;SDS011;2277;51.626;7.516;2023-08-12T07:32:37;5.93;;;4.83;;
4529;SDS011;2277;51.626;7.516;2023-08-12T07:35:04;6.27;;;5.03;;
4529;SDS011;2277;51.626;7.516;2023-08-12T07:37:30;5.20;;;4.67;;
4529;SDS011;2277;51.626;7.516;2023-08-12T07:39:56;8.20;;;4.87;;
4529;SDS011;2277;51.626;7.516;2023-08-12T07:42:22;5.27;;;4.40;;
4529;SDS011;2277;51.626;7.516;2023-08-12T07:44:48;5.30;;;4.57;;
4529;SDS011;2277;51.626;7.516;2023-08-12T07:47:13;5.73;;;4.07;;
4529;SDS011;2277;51.626;7.516;2023-08-12T07:49:40;4.83;;;4.20;;
4529;SDS011;2277;51.626;7.516;2023-08-12T07:52:06;4.37;;;3.80;;
4529;SDS011;2277;51.626;7.516;2023-08-12T07:54:31;3.80;;;3.40;;
4529;SDS011;2277;51.626;7.516;2023-08-12T07:56:57;4.70;;;3.50;;
4529;SDS011;2277;51.626;7.516;2023-08-12T07:59:22;4.70;;;2.77;;
4529;SDS011;2277;51.626;7.516;2023-08-12T08:01:48;4.10;;;3.00;;
4529;SDS011;2277;51.626;7.516;2023-08-12T08:04:14;4.17;;;3.30;;
4529;SDS011;2277;51.626;7.516;2023-08-12T08:06:39;3.97;;;3.57;;
4529;SDS011;2277;51.626;7.516;2023-08-12T08:09:05;3.93;;;3.20;;
4529;SDS011;2277;51.626;7.516;2023-08-12T08:11:31;5.10;;;2.93;;
4529;SDS011;2277;51.626;7.516;2023-08-12T08:13:57;4.83;;;3.97;;
4529;SDS011;2277;51.626;7.516;2023-08-12T08:16:23;3.63;;;3.03;;
4529;SDS011;2277;51.626;7.516;2023-08-12T08:18:49;4.90;;;3.83;;
4529;SDS011;2277;51.626;7.516;2023-08-12T08:21:15;4.60;;;3.80;;
4529;SDS011;2277;51.626;7.516;2023-08-12T08:23:41;4.00;;;3.30;;
4529;SDS011;2277;51.626;7.516;2023-08-12T08:26:08;4.93;;;2.70;;
4529;SDS011;2277;51.626;7.516;2023-08-12T08:28:33;4.70;;;2.47;;
4529;SDS011;2277;51.626;7.516;2023-08-12T08:30:59;3.57;;;3.03;;
4529;SDS011;2277;51.626;7.516;2023-08-12T08:33:25;4.10;;;3.07;;
4529;SDS011;2277;51.626;7.516;2023-08-12T08:35:51;3.70;;;3.23;;
4529;SDS011;2277;51.626;7.516;2023-08-12T08:38:18;3.83;;;3.20;;
4529;SDS011;2277;51.626;7.516;2023-08-12T08:40:44;2.77;;;2.50;;
4529;SDS011;2277;51.626;7.516;2023-08-12T08:43:09;3.27;;;2.80;;
4529;SDS011;2277;51.626;7.516;2023-08-12T08:45:36;5.50;;;4.20;;
4529;SDS011;2277;51.626;7.516;2023-08-12T08:48:03;3.17;;;2.87;;
4529;SDS011;2277;51.626;7.516;2023-08-12T08:50:31;3.50;;;2.60;;
4529;SDS011;2277;51.626;7.516;2023-08-12T08:52:57;4.33;;;2.30;;
4529;SDS011;2277;51.626;7.516;2023-08-12T08:55:24;4.40;;;2.47;;
4529;SDS011;2277;51.626;7.516;2023-08-12T08:57:50;3.73;;;3.30;;
4529;SDS011;2277;51.626;7.516;2023-08-12T09:00:17;5.63;;;2.20;;
4529;SDS011;2277;51.626;7.516;2023-08-12T09:02:44;3.43;;;2.63;;
4529;SDS011;2277;51.626;7.516;2023-08-12T09:05:14;5.03;;;2.37;;
4529;SDS011;2277;51.626;7.516;2023-08-12T09:07:41;2.60;;;2.40;;
4529;SDS011;2277;51.626;7.516;2023-08-12T09:10:09;2.03;;;1.83;;
4529;SDS011;2277;51.626;7.516;2023-08-12T09:12:36;4.63;;;2.30;;
4529;SDS011;2277;51.626;7.516;2023-08-12T09:15:02;2.10;;;1.67;;
4529;SDS011;2277;51.626;7.516;2023-08-12T09:17:29;3.57;;;3.03;;
4529;SDS011;2277;51.626;7.516;2023-08-12T09:19:57;2.30;;;2.10;;
4529;SDS011;2277;51.626;7.516;2023-08-12T09:22:24;2.80;;;2.60;;
4529;SDS011;2277;51.626;7.516;2023-08-12T09:24:50;3.43;;;2.30;;
4529;SDS011;2277;51.626;7.516;2023-08-12T09:27:21;3.30;;;2.47;;
4529;SDS011;2277;51.626;7.516;2023-08-12T09:29:47;2.87;;;2.57;;
4529;SDS011;2277;51.626;7.516;2023-08-12T09:32:13;4.13;;;2.70;;
4529;SDS011;2277;51.626;7.516;2023-08-12T09:37:13;4.00;;;2.13;;
4529;SDS011;2277;51.626;7.516;2023-08-12T09:39:39;4.80;;;2.90;;
4529;SDS011;2277;51.626;7.516;2023-08-12T09:42:05;2.90;;;2.70;;
4529;SDS011;2277;51.626;7.516;2023-08-12T09:44:34;2.43;;;2.10;;
4529;SDS011;2277;51.626;7.516;2023-08-12T09:47:00;3.90;;;3.13;;
4529;SDS011;2277;51.626;7.516;2023-08-12T09:49:26;3.13;;;2.17;;
4529;SDS011;2277;51.626;7.516;2023-08-12T09:51:52;4.80;;;3.43;;
4529;SDS011;2277;51.626;7.516;2023-08-12T09:54:18;3.03;;;2.40;;
4529;SDS011;2277;51.626;7.516;2023-08-12T09:56:46;2.60;;;2.20;;
4529;SDS011;2277;51.626;7.516;2023-08-12T09:59:14;3.67;;;2.13;;
4529;SDS011;2277;51.626;7.516;2023-08-12T10:01:45;3.30;;;2.13;;
4529;SDS011;2277;51.626;7.516;2023-08-12T10:04:12;2.37;;;2.17;;
4529;SDS011;2277;51.626;7.516;2023-08-12T10:06:41;2.50;;;1.70;;
4529;SDS011;2277;51.626;7.516;2023-08-12T10:09:08;2.50;;;1.80;;
4529;SDS011;2277;51.626;7.516;2023-08-12T10:11:36;2.47;;;2.27;;
4529;SDS011;2277;51.626;7.516;2023-08-12T10:14:05;2.87;;;2.63;;
4529;SDS011;2277;51.626;7.516;2023-08-12T10:16:33;3.23;;;2.10;;
4529;SDS011;2277;51.626;7.516;2023-08-12T10:19:00;1.97;;;1.47;;
4529;SDS011;2277;51.626;7.516;2023-08-12T10:21:27;3.30;;;2.60;;
4529;SDS011;2277;51.626;7.516;2023-08-12T10:23:53;3.00;;;2.40;;
4529;SDS011;2277;51.626;7.516;2023-08-12T10:26:19;2.60;;;1.97;;
4529;SDS011;2277;51.626;7.516;2023-08-12T10:28:45;2.50;;;2.10;;
4529;SDS011;2277;51.626;7.516;2023-08-12T10:31:13;3.07;;;2.43;;
4529;SDS011;2277;51.626;7.516;2023-08-12T10:33:39;2.70;;;2.00;;
4529;SDS011;2277;51.626;7.516;2023-08-12T10:36:06;3.70;;;2.13;;
4529;SDS011;2277;51.626;7.516;2023-08-12T10:38:32;2.43;;;2.00;;
4529;SDS011;2277;51.626;7.516;2023-08-12T10:44:00;1.70;;;1.60;;
4529;SDS011;2277;51.626;7.516;2023-08-12T10:46:34;6.60;;;2.00;;
4529;SDS011;2277;51.626;7.516;2023-08-12T10:49:04;2.17;;;1.77;;
4529;SDS011;2277;51.626;7.516;2023-08-12T10:51:43;2.63;;;1.83;;
4529;SDS011;2277;51.626;7.516;2023-08-12T10:54:22;2.50;;;1.70;;
4529;SDS011;2277;51.626;7.516;2023-08-12T11:02:16;6.13;;;5.20;;
4529;SDS011;2277;51.626;7.516;2023-08-12T11:07:42;3.10;;;2.10;;
4529;SDS011;2277;51.626;7.516;2023-08-12T11:12:38;3.23;;;2.20;;
4529;SDS011;2277;51.626;7.516;2023-08-12T11:15:05;3.80;;;2.30;;
4529;SDS011;2277;51.626;7.516;2023-08-12T11:17:32;1.83;;;1.73;;
4529;SDS011;2277;51.626;7.516;2023-08-12T11:20:05;2.27;;;1.43;;
4529;SDS011;2277;51.626;7.516;2023-08-12T11:22:35;4.23;;;2.20;;
4529;SDS011;2277;51.626;7.516;2023-08-12T11:25:02;3.90;;;2.40;;
4529;SDS011;2277;51.626;7.516;2023-08-12T11:27:40;3.60;;;2.00;;
4529;SDS011;2277;51.626;7.516;2023-08-12T11:30:07;2.57;;;1.80;;
4529;SDS011;2277;51.626;7.516;2023-08-12T11:32:35;4.73;;;1.93;;
4529;SDS011;2277;51.626;7.516;2023-08-12T11:35:02;1.50;;;1.30;;
4529;SDS011;2277;51.626;7.516;2023-08-12T11:37:29;2.83;;;1.77;;
4529;SDS011;2277;51.626;7.516;2023-08-12T11:39:54;6.50;;;3.50;;
4529;SDS011;2277;51.626;7.516;2023-08-12T11:42:20;2.73;;;2.47;;
4529;SDS011;2277;51.626;7.516;2023-08-12T11:44:45;4.80;;;2.43;;
4529;SDS011;2277;51.626;7.516;2023-08-12T11:47:11;2.20;;;1.93;;
4529;SDS011;2277;51.626;7.516;2023-08-12T11:49:37;8.30;;;1.57;;
4529;SDS011;2277;51.626;7.516;2023-08-12T11:52:02;2.33;;;1.60;;
4529;SDS011;2277;51.626;7.516;2023-08-12T11:54:29;2.43;;;1.50;;
4529;SDS011;2277;51.626;7.516;2023-08-12T11:56:55;1.73;;;1.30;;
4529;SDS011;2277;51.626;7.516;2023-08-12T11:59:22;5.03;;;1.73;;
4529;SDS011;2277;51.626;7.516;2023-08-12T12:01:50;1.93;;;1.33;;
4529;SDS011;2277;51.626;7.516;2023-08-12T12:04:16;3.17;;;1.93;;
4529;SDS011;2277;51.626;7.516;2023-08-12T12:06:45;1.40;;;1.10;;
4529;SDS011;2277;51.626;7.516;2023-08-12T12:09:11;2.40;;;1.80;;
4529;SDS011;2277;51.626;7.516;2023-08-12T12:11:39;2.87;;;1.43;;
4529;SDS011;2277;51.626;7.516;2023-08-12T12:14:09;4.73;;;2.67;;
4529;SDS011;2277;51.626;7.516;2023-08-12T12:16:39;6.10;;;2.87;;
4529;SDS011;2277;51.626;7.516;2023-08-12T12:21:42;7.93;;;2.27;;
4529;SDS011;2277;51.626;7.516;2023-08-12T12:24:10;3.93;;;2.57;;
4529;SDS011;2277;51.626;7.516;2023-08-12T12:26:36;2.30;;;1.43;;
4529;SDS011;2277;51.626;7.516;2023-08-12T12:29:05;1.80;;;1.43;;
4529;SDS011;2277;51.626;7.516;2023-08-12T12:31:32;3.00;;;1.43;;
4529;SDS011;2277;51.626;7.516;2023-08-12T12:33:59;3.00;;;1.00;;
4529;SDS011;2277;51.626;7.516;2023-08-12T12:36:25;4.47;;;1.50;;
4529;SDS011;2277;51.626;7.516;2023-08-12T12:38:51;1.53;;;0.97;;
4529;SDS011;2277;51.626;7.516;2023-08-12T12:41:17;2.00;;;0.80;;
4529;SDS011;2277;51.626;7.516;2023-08-12T12:43:42;2.13;;;1.37;;
4529;SDS011;2277;51.626;7.516;2023-08-12T12:46:08;2.43;;;0.90;;
4529;SDS011;2277;51.626;7.516;2023-08-12T12:48:34;1.10;;;0.90;;
4529;SDS011;2277;51.626;7.516;2023-08-12T12:50:59;2.17;;;1.10;;
4529;SDS011;2277;51.626;7.516;2023-08-12T12:53:25;2.60;;;1.43;;
4529;SDS011;2277;51.626;7.516;2023-08-12T12:55:50;2.10;;;1.40;;
4529;SDS011;2277;51.626;7.516;2023-08-12T12:58:16;2.23;;;1.60;;
4529;SDS011;2277;51.626;7.516;2023-08-12T13:00:42;1.10;;;0.70;;
4529;SDS011;2277;51.626;7.516;2023-08-12T13:03:07;3.90;;;2.20;;
4529;SDS011;2277;51.626;7.516;2023-08-12T13:05:33;1.60;;;1.03;;
4529;SDS011;2277;51.626;7.516;2023-08-12T13:07:58;1.87;;;1.30;;
4529;SDS011;2277;51.626;7.516;2023-08-12T13:10:24;1.77;;;1.03;;
4529;SDS011;2277;51.626;7.516;2023-08-12T13:12:50;1.33;;;1.07;;
4529;SDS011;2277;51.626;7.516;2023-08-12T13:15:15;3.93;;;1.27;;
4529;SDS011;2277;51.626;7.516;2023-08-12T13:17:41;2.73;;;2.20;;
4529;SDS011;2277;51.626;7.516;2023-08-12T13:20:07;1.33;;;1.23;;
4529;SDS011;2277;51.626;7.516;2023-08-12T13:22:34;3.20;;;1.50;;
4529;SDS011;2277;51.626;7.516;2023-08-12T13:25:00;2.83;;;1.80;;
4529;SDS011;2277;51.626;7.516;2023-08-12T13:27:26;3.83;;;2.43;;
4529;SDS011;2277;51.626;7.516;2023-08-12T13:29:52;2.50;;;2.00;;
4529;SDS011;2277;51.626;7.516;2023-08-12T13:32:17;7.33;;;2.50;;
4529;SDS011;2277;51.626;7.516;2023-08-12T13:34:43;4.13;;;1.80;;
4529;SDS011;2277;51.626;7.516;2023-08-12T13:37:11;2.83;;;2.00;;
4529;SDS011;2277;51.626;7.516;2023-08-12T13:39:36;2.87;;;2.10;;
4529;SDS011;2277;51.626;7.516;2023-08-12T13:42:02;3.87;;;3.13;;
4529;SDS011;2277;51.626;7.516;2023-08-12T13:44:28;3.80;;;3.10;;
4529;SDS011;2277;51.626;7.516;2023-08-12T13:46:53;2.83;;;2.50;;
4529;SDS011;2277;51.626;7.516;2023-08-12T13:49:19;4.83;;;3.30;;
4529;SDS011;2277;51.626;7.516;2023-08-12T13:51:45;3.20;;;2.90;;
4529;SDS011;2277;51.626;7.516;2023-08-12T13:54:10;4.10;;;2.80;;
4529;SDS011;2277;51.626;7.516;2023-08-12T13:56:36;3.90;;;3.47;;
4529;SDS011;2277;51.626;7.516;2023-08-12T13:59:01;3.53;;;2.40;;
4529;SDS011;2277;51.626;7.516;2023-08-12T14:01:27;3.23;;;2.83;;
4529;SDS011;2277;51.626;7.516;2023-08-12T14:03:52;2.90;;;2.17;;
4529;SDS011;2277;51.626;7.516;2023-08-12T14:06:18;3.17;;;2.87;;
4529;SDS011;2277;51.626;7.516;2023-08-12T14:08:44;3.47;;;2.90;;
4529;SDS011;2277;51.626;7.516;2023-08-12T14:11:09;2.87;;;2.50;;
4529;SDS011;2277;51.626;7.516;2023-08-12T14:13:35;6.17;;;4.03;;
4529;SDS011;2277;51.626;7.516;2023-08-12T14:16:00;3.10;;;2.80;;
4529;SDS011;2277;51.626;7.516;2023-08-12T14:18:26;3.00;;;2.70;;
4529;SDS011;2277;51.626;7.516;2023-08-12T14:20:51;2.50;;;2.30;;
4529;SDS011;2277;51.626;7.516;2023-08-12T14:23:17;3.93;;;2.87;;
4529;SDS011;2277;51.626;7.516;2023-08-12T14:25:43;5.30;;;3.60;;
4529;SDS011;2277;51.626;7.516;2023-08-12T14:28:08;6.10;;;3.70;;
4529;SDS011;2277;51.626;7.516;2023-08-12T14:30:34;4.00;;;3.50;;
4529;SDS011;2277;51.626;7.516;2023-08-12T14:32:59;4.83;;;3.67;;
4529;SDS011;2277;51.626;7.516;2023-08-12T14:35:25;5.43;;;3.87;;
4529;SDS011;2277;51.626;7.516;2023-08-12T14:37:50;6.50;;;4.03;;
4529;SDS011;2277;51.626;7.516;2023-08-12T14:40:17;7.67;;;4.80;;
4529;SDS011;2277;51.626;7.516;2023-08-12T14:42:42;6.17;;;5.07;;
4529;SDS011;2277;51.626;7.516;2023-08-12T14:45:08;7.03;;;5.73;;
4529;SDS011;2277;51.626;7.516;2023-08-12T14:47:34;4.77;;;4.20;;
4529;SDS011;2277;51.626;7.516;2023-08-12T14:50:00;8.10;;;5.47;;
4529;SDS011;2277;51.626;7.516;2023-08-12T14:52:26;9.17;;;7.00;;
4529;SDS011;2277;51.626;7.516;2023-08-12T14:54:51;6.87;;;5.07;;
4529;SDS011;2277;51.626;7.516;2023-08-12T14:57:17;4.93;;;3.50;;
4529;SDS011;2277;51.626;7.516;2023-08-12T14:59:43;6.83;;;5.27;;
4529;SDS011;2277;51.626;7.516;2023-08-12T15:02:09;5.70;;;5.10;;
4529;SDS011;2277;51.626;7.516;2023-08-12T15:04:34;5.30;;;4.80;;
4529;SDS011;2277;51.626;7.516;2023-08-12T15:07:00;5.00;;;3.90;;
4529;SDS011;2277;51.626;7.516;2023-08-12T15:09:26;6.20;;;5.17;;
4529;SDS011;2277;51.626;7.516;2023-08-12T15:11:52;6.63;;;4.63;;
4529;SDS011;2277;51.626;7.516;2023-08-12T15:14:17;8.10;;;5.30;;
4529;SDS011;2277;51.626;7.516;2023-08-12T15:16:43;4.13;;;3.47;;
4529;SDS011;2277;51.626;7.516;2023-08-12T15:19:08;5.07;;;2.60;;
4529;SDS011;2277;51.626;7.516;2023-08-12T15:21:34;3.10;;;2.77;;
4529;SDS011;2277;51.626;7.516;2023-08-12T15:24:00;4.37;;;3.53;;
4529;SDS011;2277;51.626;7.516;2023-08-12T15:26:25;11.27;;;6.07;;
4529;SDS011;2277;51.626;7.516;2023-08-12T15:28:51;5.43;;;4.03;;